Terminal Aerodrome Forecast
Issued by NWS

Home | Current Version | Previous Version | Text Only | Print | Product List | Glossary On
Versions: 1 2 3 4 5 6 7 8 9 10 11 12 13 14 15 16
000
FTUS42 KTBW 250538 AAB
TAFRSW
TAF AMD
KRSW 250538Z 2506/2606 05006KT P6SM FEW035 SCT070 BKN200
     FM251000 04006KT P6SM SCT010 BKN030
     FM251500 08008KT P6SM SCT025 BKN060
     FM251800 07010KT P6SM VCTS SCT025CB BKN035
     FM260000 06006KT P6SM SCT020 BKN040=

USA.gov is the U.S. government's official web portal to all federal, state and local government web resources and services.